createdAt,value
2022-11-05T00:00:38.461Z,39.25
2022-11-05T00:03:24.769Z,35.25
2022-11-05T00:06:12.463Z,37.13
2022-11-05T00:08:59.606Z,35.37
2022-11-05T00:11:47.091Z,35.67
2022-11-05T00:14:33.526Z,38.22
2022-11-05T00:17:00.967Z,39.33
2022-11-05T00:19:28.297Z,39.25
2022-11-05T00:22:14.098Z,46.50
2022-11-05T00:25:00.136Z,42.65
2022-11-05T00:27:27.867Z,47.90
2022-11-05T00:29:55.286Z,42.88
2022-11-05T00:32:23.495Z,40.40
2022-11-05T00:34:50.967Z,46.63
2022-11-05T00:37:18.246Z,47.80
2022-11-05T00:39:45.578Z,41.78
2022-11-05T00:42:31.125Z,44.00
2022-11-05T00:45:04.621Z,41.55
2022-11-05T00:47:51.653Z,43.50
2022-11-05T00:50:20.813Z,45.30
2022-11-05T00:52:56.089Z,47.17
2022-11-05T00:55:29.015Z,41.38
2022-11-05T00:57:58.173Z,36.60
2022-11-05T01:00:30.463Z,38.87
2022-11-05T01:02:59.261Z,41.97
2022-11-05T01:05:26.835Z,36.25
2022-11-05T01:07:54.627Z,42.97
2022-11-05T01:10:22.518Z,41.55
2022-11-05T01:12:50.500Z,41.03
2022-11-05T01:15:19.639Z,38.50
2022-11-05T01:17:47.092Z,43.30
2022-11-05T01:20:14.569Z,42.10
2022-11-05T01:22:41.940Z,45.78
2022-11-05T01:25:10.518Z,41.47
2022-11-05T01:27:38.686Z,42.65
2022-11-05T01:30:08.038Z,45.72
2022-11-05T01:32:37.165Z,39.92
2022-11-05T01:35:10.660Z,45.63
2022-11-05T01:37:38.305Z,40.00
2022-11-05T01:40:07.222Z,48.10
2022-11-05T01:42:35.169Z,45.53
2022-11-05T01:45:12.653Z,44.65
2022-11-05T01:47:52.615Z,39.85
2022-11-05T01:50:29.982Z,36.90
2022-11-05T01:53:20.042Z,44.05
2022-11-05T01:55:54.016Z,40.30
2022-11-05T01:58:24.661Z,40.78
2022-11-05T02:00:52.719Z,39.47
2022-11-05T02:03:20.975Z,45.80
2022-11-05T02:05:49.957Z,41.78
2022-11-05T02:08:25.044Z,36.75
2022-11-05T02:10:52.913Z,43.72
2022-11-05T02:13:20.208Z,39.65
2022-11-05T02:16:25.809Z,35.53
2022-11-05T02:19:40.650Z,37.05
2022-11-05T02:22:39.173Z,36.08
2022-11-05T02:25:52.882Z,41.13
2022-11-05T02:28:49.627Z,36.95
2022-11-05T02:31:29.123Z,37.03
2022-11-05T02:34:33.602Z,37.60
2022-11-05T02:37:14.153Z,38.75
2022-11-05T02:39:53.934Z,32.92
2022-11-05T02:42:45.168Z,36.47
2022-11-05T02:45:47.277Z,40.93
2022-11-05T02:48:32.475Z,37.75
2022-11-05T02:51:10.149Z,37.53
2022-11-05T02:53:49.208Z,38.47
2022-11-05T02:56:30.226Z,41.80
2022-11-05T02:58:57.530Z,37.27
2022-11-05T03:01:25.224Z,42.38
2022-11-05T03:03:57.533Z,44.72
2022-11-05T03:07:20.236Z,38.03
2022-11-05T03:10:19.397Z,39.00
2022-11-05T03:12:49.592Z,36.70
2022-11-05T03:15:34.974Z,39.65
2022-11-05T03:18:16.395Z,41.08
2022-11-05T03:20:52.025Z,40.63
2022-11-05T03:23:29.718Z,44.10
2022-11-05T03:26:05.611Z,44.70
2022-11-05T03:28:36.230Z,41.20
2022-11-05T03:31:05.940Z,39.70
2022-11-05T03:33:36.782Z,39.28
2022-11-05T03:36:11.298Z,42.78
2022-11-05T03:38:42.045Z,40.73
2022-11-05T03:41:13.069Z,38.13
2022-11-05T03:43:45.195Z,39.40
2022-11-05T03:46:23.517Z,43.85
2022-11-05T03:48:55.617Z,35.92
2022-11-05T03:51:53.590Z,37.97
2022-11-05T03:54:21.153Z,39.58
2022-11-05T03:57:20.601Z,34.80
2022-11-05T03:59:50.599Z,39.97
2022-11-05T04:02:22.421Z,44.75
2022-11-05T04:04:50.374Z,34.80
2022-11-05T04:07:36.394Z,37.75
2022-11-05T04:10:23.102Z,39.95
2022-11-05T04:13:09.975Z,36.00
2022-11-05T04:15:56.211Z,36.45
2022-11-05T04:18:24.714Z,34.23
2022-11-05T04:21:10.693Z,40.92
2022-11-05T04:23:56.496Z,39.08
2022-11-05T04:26:23.811Z,37.28
2022-11-05T04:29:10.362Z,34.40
2022-11-05T04:31:38.863Z,35.07
2022-11-05T04:34:06.424Z,40.63
2022-11-05T04:36:34.372Z,39.63
2022-11-05T04:39:01.972Z,44.40
2022-11-05T04:41:29.409Z,39.55
2022-11-05T04:43:57.006Z,40.30
2022-11-05T04:46:24.822Z,44.97
2022-11-05T04:48:52.274Z,41.38
2022-11-05T04:51:19.933Z,36.17
2022-11-05T04:53:47.314Z,38.55
2022-11-05T04:56:23.202Z,38.17
2022-11-05T04:58:51.002Z,38.60
2022-11-05T05:01:25.575Z,40.30
2022-11-05T05:03:54.530Z,34.83
2022-11-05T05:06:27.361Z,42.92
2022-11-05T05:08:54.915Z,39.17
2022-11-05T05:11:22.871Z,39.90
2022-11-05T05:13:50.781Z,41.63
2022-11-05T05:16:22.640Z,38.70
2022-11-05T05:18:50.639Z,37.00
2022-11-05T05:21:38.349Z,36.03
2022-11-05T05:24:11.087Z,43.33
2022-11-05T05:26:40.485Z,38.50
2022-11-05T05:29:08.732Z,36.88
2022-11-05T05:31:36.892Z,43.83
2022-11-05T05:34:06.552Z,40.73
2022-11-05T05:36:34.564Z,42.60
2022-11-05T05:39:02.120Z,39.53
2022-11-05T05:41:29.496Z,39.72
2022-11-05T05:43:57.028Z,42.13
2022-11-05T05:46:24.770Z,41.73
2022-11-05T05:48:52.865Z,39.20
2022-11-05T05:51:20.794Z,37.10
2022-11-05T05:53:48.404Z,36.70
2022-11-05T05:56:19.451Z,37.90
2022-11-05T05:58:47.214Z,37.20
2022-11-05T06:01:19.366Z,42.00
2022-11-05T06:03:48.949Z,40.15
2022-11-05T06:06:21.908Z,43.15
2022-11-05T06:08:49.613Z,38.13
2022-11-05T06:11:17.252Z,41.10
2022-11-05T06:13:44.568Z,42.38
2022-11-05T06:16:12.052Z,37.75
2022-11-05T06:18:39.634Z,40.53
2022-11-05T06:21:08.202Z,40.38
2022-11-05T06:23:37.525Z,36.73
2022-11-05T06:26:11.189Z,43.72
2022-11-05T06:28:38.714Z,40.15
2022-11-05T06:31:06.380Z,43.17
2022-11-05T06:33:33.867Z,34.60
2022-11-05T06:36:03.077Z,38.67
2022-11-05T06:38:33.503Z,46.25
2022-11-05T06:41:04.559Z,40.05
2022-11-05T06:43:36.515Z,42.58
2022-11-05T06:46:04.279Z,42.15
2022-11-05T06:48:31.702Z,37.97
2022-11-05T06:50:59.279Z,45.78
2022-11-05T06:53:26.793Z,41.20
2022-11-05T06:55:54.127Z,40.95
2022-11-05T06:58:21.688Z,40.58
2022-11-05T07:00:49.420Z,39.57
2022-11-05T07:03:17.036Z,43.30
2022-11-05T07:05:48.353Z,35.35
2022-11-05T07:08:16.246Z,42.17
2022-11-05T07:10:43.686Z,37.55
2022-11-05T07:13:14.760Z,37.50
2022-11-05T07:15:45.832Z,31.92
2022-11-05T07:18:13.347Z,32.83
2022-11-05T07:20:40.761Z,37.47
2022-11-05T07:23:13.031Z,36.28
2022-11-05T07:25:42.103Z,30.23
2022-11-05T07:28:14.760Z,39.35
2022-11-05T07:30:42.253Z,34.25
2022-11-05T07:33:10.508Z,32.13
2022-11-05T07:35:38.112Z,36.35
2022-11-05T07:38:05.497Z,30.97
2022-11-05T07:40:32.885Z,35.33
2022-11-05T07:43:02.264Z,34.03
2022-11-05T07:45:31.477Z,34.03
2022-11-05T07:48:01.261Z,28.10
2022-11-05T07:50:34.891Z,30.63
2022-11-05T07:53:13.804Z,35.38
2022-11-05T07:55:42.357Z,28.90
2022-11-05T07:58:10.778Z,28.73
2022-11-05T08:00:38.352Z,29.70
2022-11-05T08:03:32.408Z,27.77
2022-11-05T08:06:00.489Z,28.73
2022-11-05T08:08:28.154Z,28.83
2022-11-05T08:11:03.504Z,30.95
2022-11-05T08:13:30.911Z,29.77
2022-11-05T08:15:58.443Z,33.73
2022-11-05T08:18:31.905Z,33.85
2022-11-05T08:21:01.197Z,30.50
2022-11-05T08:23:31.391Z,30.98
2022-11-05T08:25:59.147Z,29.58
2022-11-05T08:28:27.254Z,29.30
2022-11-05T08:30:57.269Z,29.90
2022-11-05T08:33:25.616Z,33.47
2022-11-05T08:35:53.357Z,30.33
2022-11-05T08:38:21.166Z,30.50
2022-11-05T08:40:56.778Z,28.00
2022-11-05T08:43:24.554Z,23.75
2022-11-05T08:45:52.351Z,26.95
2022-11-05T08:48:20.010Z,29.10
2022-11-05T08:50:49.102Z,26.15
2022-11-05T08:53:17.073Z,25.77
2022-11-05T08:56:15.818Z,26.58
2022-11-05T08:58:43.392Z,28.02
2022-11-05T09:01:10.868Z,25.17
2022-11-05T09:03:38.336Z,25.83
2022-11-05T09:06:06.241Z,23.70
2022-11-05T09:08:33.924Z,27.27
2022-11-05T09:11:01.464Z,21.33
2022-11-05T09:13:30.180Z,22.45
2022-11-05T09:15:59.747Z,20.55
2022-11-05T09:18:27.239Z,23.10
2022-11-05T09:20:54.679Z,20.48
2022-11-05T09:23:22.074Z,19.80
2022-11-05T09:25:49.382Z,22.05
2022-11-05T09:28:21.792Z,22.38
2022-11-05T09:30:51.707Z,20.20
2022-11-05T09:33:22.329Z,21.45
2022-11-05T09:35:49.877Z,22.23
2022-11-05T09:38:18.129Z,18.35
2022-11-05T09:41:12.272Z,20.65
2022-11-05T09:43:43.010Z,21.87
2022-11-05T09:46:18.110Z,20.08
2022-11-05T09:48:50.184Z,20.00
2022-11-05T09:51:23.633Z,20.63
2022-11-05T09:53:51.934Z,22.65
2022-11-05T09:56:28.008Z,19.87
2022-11-05T09:59:04.858Z,26.55
2022-11-05T10:01:38.476Z,21.92
2022-11-05T10:04:14.587Z,18.50
2022-11-05T10:06:57.137Z,20.02
2022-11-05T10:09:29.512Z,23.00
2022-11-05T10:12:12.967Z,21.27
2022-11-05T10:14:49.146Z,21.15
2022-11-05T10:17:24.738Z,23.95
2022-11-05T10:20:30.511Z,22.25
2022-11-05T10:23:02.196Z,25.20
2022-11-05T10:25:36.434Z,27.50
2022-11-05T10:28:05.261Z,25.48
2022-11-05T10:30:33.178Z,22.60
2022-11-05T10:33:05.462Z,22.85
2022-11-05T10:35:36.575Z,20.13
2022-11-05T10:38:04.961Z,22.00
2022-11-05T10:41:06.573Z,22.10
2022-11-05T10:43:42.729Z,24.38
2022-11-05T10:46:24.645Z,25.05
2022-11-05T10:49:08.320Z,22.73
2022-11-05T10:51:35.944Z,23.63
2022-11-05T10:54:17.463Z,22.48
2022-11-05T10:56:45.231Z,24.15
2022-11-05T10:59:32.866Z,25.73
2022-11-05T11:02:16.874Z,23.37
2022-11-05T11:04:44.540Z,21.58
2022-11-05T11:07:24.735Z,18.98
2022-11-05T11:09:52.823Z,21.42
2022-11-05T11:12:40.530Z,23.45
2022-11-05T11:15:25.670Z,22.53
2022-11-05T11:17:55.908Z,23.40
2022-11-05T11:20:30.519Z,26.02
2022-11-05T11:23:14.397Z,24.63
2022-11-05T11:25:58.435Z,24.60
2022-11-05T11:28:29.965Z,25.50
2022-11-05T11:31:24.287Z,22.17
2022-11-05T11:33:59.109Z,22.73
2022-11-05T11:36:33.908Z,28.02
2022-11-05T11:39:06.446Z,30.83
2022-11-05T11:41:42.165Z,25.90
2022-11-05T11:44:18.154Z,23.45
2022-11-05T11:46:51.468Z,23.65
2022-11-05T11:49:56.618Z,27.05
2022-11-05T11:52:36.131Z,22.80
2022-11-05T11:55:13.126Z,24.03
2022-11-05T11:57:52.626Z,23.77
2022-11-05T12:00:23.680Z,23.50
2022-11-05T12:02:58.790Z,26.20
2022-11-05T12:05:52.651Z,40.28
2022-11-05T12:08:29.144Z,32.07
2022-11-05T12:11:01.043Z,33.72
2022-11-05T12:13:37.440Z,28.05
2022-11-05T12:16:25.225Z,32.30
2022-11-05T12:19:26.039Z,29.55
2022-11-05T12:22:04.199Z,44.37
2022-11-05T12:25:09.263Z,98.38
2022-11-05T12:27:58.061Z,111.32
2022-11-05T12:30:25.931Z,61.75
2022-11-05T12:33:08.319Z,24.20
2022-11-05T12:35:57.577Z,26.40
2022-11-05T12:38:43.414Z,24.50
2022-11-05T12:41:22.473Z,24.75
2022-11-05T12:44:16.024Z,24.65
2022-11-05T12:46:58.392Z,27.50
2022-11-05T12:49:31.246Z,24.90
2022-11-05T12:52:15.289Z,25.27
2022-11-05T12:55:04.387Z,23.77
2022-11-05T12:57:36.786Z,25.33
2022-11-05T13:00:19.241Z,28.05
2022-11-05T13:02:53.019Z,21.73
2022-11-05T13:05:26.428Z,23.40
2022-11-05T13:08:09.049Z,23.05
2022-11-05T13:11:05.496Z,23.48
2022-11-05T13:14:16.520Z,21.98
2022-11-05T13:16:51.259Z,22.97
2022-11-05T13:19:31.956Z,24.38
2022-11-05T13:22:26.959Z,23.80
2022-11-05T13:24:58.786Z,24.05
2022-11-05T13:27:34.966Z,21.95
2022-11-05T13:30:07.603Z,20.77
2022-11-05T13:32:38.778Z,20.70
2022-11-05T13:35:39.863Z,22.17
2022-11-05T13:39:21.670Z,26.50
2022-11-05T13:43:04.847Z,21.05
2022-11-05T14:17:31.732Z,23.15
2022-11-05T14:20:05.301Z,28.10
2022-11-05T14:22:34.916Z,25.77
2022-11-05T14:25:22.518Z,28.87
2022-11-05T14:27:52.471Z,24.77
2022-11-05T14:30:48.044Z,25.63
2022-11-05T14:33:17.291Z,27.80
2022-11-05T14:35:45.027Z,26.85
2022-11-05T14:38:22.773Z,29.50
2022-11-05T14:40:59.630Z,25.70
2022-11-05T14:43:32.389Z,24.52
2022-11-05T14:46:09.796Z,28.13
2022-11-05T14:48:53.797Z,27.23
2022-11-05T14:51:38.288Z,25.10
2022-11-05T14:54:25.093Z,25.33
2022-11-05T14:57:00.541Z,26.45
2022-11-05T14:59:29.806Z,24.30
2022-11-05T15:02:13.910Z,26.98
2022-11-05T15:04:46.983Z,23.17
2022-11-05T15:07:25.959Z,26.92
2022-11-05T15:09:53.960Z,26.75
2022-11-05T15:12:38.173Z,25.63
2022-11-05T15:15:24.693Z,25.63
2022-11-05T15:18:13.911Z,24.67
2022-11-05T15:20:51.187Z,27.10
2022-11-05T15:23:24.958Z,23.63
2022-11-05T15:25:56.773Z,20.98
2022-11-05T15:28:36.699Z,25.02
2022-11-05T15:31:13.000Z,23.57
2022-11-05T15:33:42.786Z,30.42
2022-11-05T15:36:18.975Z,24.88
2022-11-05T15:39:15.239Z,28.00
2022-11-05T15:41:36.849Z,28.08
2022-11-05T15:44:04.575Z,24.77
2022-11-05T15:46:32.285Z,31.95
2022-11-05T15:49:07.407Z,22.02
2022-11-05T15:51:36.899Z,23.10
2022-11-05T15:54:29.110Z,29.45
2022-11-05T15:56:58.829Z,27.33
2022-11-05T15:59:28.284Z,23.92
2022-11-05T16:01:57.976Z,24.92
2022-11-05T16:04:30.415Z,24.60
2022-11-05T16:07:11.519Z,23.60
2022-11-05T16:09:42.010Z,26.50
2022-11-05T16:12:25.555Z,29.45
2022-11-05T16:15:02.035Z,21.48
2022-11-05T16:17:48.108Z,25.10
2022-11-05T16:20:32.494Z,26.98
2022-11-05T16:23:06.533Z,25.60
2022-11-05T16:25:43.107Z,24.00
2022-11-05T16:28:26.359Z,27.33
2022-11-05T16:31:06.027Z,22.35
2022-11-05T16:33:45.340Z,25.95
2022-11-05T16:36:13.609Z,25.83
2022-11-05T16:38:43.407Z,21.33
2022-11-05T16:41:17.977Z,24.20
2022-11-05T16:44:00.878Z,21.98
2022-11-05T16:50:41.406Z,24.30
2022-11-05T16:53:35.371Z,20.63
2022-11-05T16:56:04.208Z,25.33
2022-11-05T16:58:32.164Z,26.83
2022-11-05T17:01:08.398Z,26.15
2022-11-05T17:03:36.252Z,21.20
2022-11-05T17:06:04.738Z,22.02
2022-11-05T17:08:32.095Z,25.45
2022-11-05T17:10:59.772Z,24.60
2022-11-05T17:13:27.282Z,21.50
2022-11-05T17:15:54.791Z,17.97
2022-11-05T17:18:22.396Z,19.20
2022-11-05T17:20:52.892Z,29.52
2022-11-05T17:23:22.252Z,18.45
2022-11-05T17:25:52.735Z,17.35
2022-11-05T17:28:20.921Z,20.47
2022-11-05T17:30:55.114Z,18.13
2022-11-05T17:33:23.600Z,23.55
2022-11-05T17:35:52.013Z,24.00
2022-11-05T17:38:20.363Z,21.25
2022-11-05T17:40:47.774Z,19.13
2022-11-05T17:43:16.062Z,16.80
2022-11-05T17:45:46.031Z,21.95
2022-11-05T17:48:14.125Z,22.60
2022-11-05T17:50:46.998Z,18.75
2022-11-05T17:53:16.617Z,21.50
2022-11-05T17:55:45.272Z,17.42
2022-11-05T17:58:13.159Z,22.85
2022-11-05T18:00:41.561Z,17.52
2022-11-05T18:03:10.627Z,18.98
2022-11-05T18:05:38.675Z,16.70
2022-11-05T18:08:06.844Z,30.30
2022-11-05T18:10:37.592Z,19.77
2022-11-05T18:13:05.325Z,20.00
2022-11-05T18:15:32.902Z,22.52
2022-11-05T18:18:00.236Z,18.90
2022-11-05T18:20:27.728Z,19.73
2022-11-05T18:22:55.168Z,22.45
2022-11-05T18:25:22.508Z,18.05
2022-11-05T18:27:49.903Z,19.38
2022-11-05T18:30:17.632Z,18.30
2022-11-05T18:32:45.716Z,25.33
2022-11-05T18:35:14.707Z,18.23
2022-11-05T18:37:42.138Z,17.42
2022-11-05T18:40:10.237Z,17.02
2022-11-05T18:42:37.803Z,21.70
2022-11-05T18:45:07.010Z,19.15
2022-11-05T18:47:35.056Z,14.40
2022-11-05T18:50:03.174Z,20.92
2022-11-05T18:52:32.143Z,15.18
2022-11-05T18:55:00.246Z,16.43
2022-11-05T18:57:28.200Z,15.68
2022-11-05T18:59:55.613Z,15.70
2022-11-05T19:02:23.337Z,16.83
2022-11-05T19:05:21.929Z,18.65
2022-11-05T19:07:41.679Z,11.53
2022-11-05T19:10:09.773Z,16.23
2022-11-05T19:12:37.501Z,17.52
2022-11-05T19:15:05.420Z,17.45
2022-11-05T19:17:34.295Z,14.45
2022-11-05T19:20:02.348Z,17.43
2022-11-05T19:22:29.824Z,16.65
2022-11-05T19:24:57.354Z,16.05
2022-11-05T19:27:25.115Z,17.48
2022-11-05T19:29:52.723Z,21.33
2022-11-05T19:32:21.501Z,14.27
2022-11-05T19:34:49.052Z,15.95
2022-11-05T19:37:16.757Z,13.60
2022-11-05T19:39:44.200Z,19.38
2022-11-05T19:42:11.663Z,21.17
2022-11-05T19:44:39.191Z,13.47
2022-11-05T19:47:06.896Z,13.48
2022-11-05T19:49:34.439Z,16.15
2022-11-05T19:52:01.904Z,15.48
2022-11-05T19:54:29.258Z,18.40
2022-11-05T19:56:56.645Z,19.23
2022-11-05T19:59:24.074Z,16.58
2022-11-05T20:01:51.547Z,17.83
2022-11-05T20:04:19.035Z,16.55
2022-11-05T20:06:46.555Z,14.23
2022-11-05T20:09:21.454Z,14.40
2022-11-05T20:11:50.430Z,15.60
2022-11-05T20:14:17.863Z,16.15
2022-11-05T20:16:46.552Z,20.50
2022-11-05T20:19:16.582Z,19.08
2022-11-05T20:21:44.743Z,15.23
2022-11-05T20:24:17.444Z,13.13
2022-11-05T20:26:49.612Z,12.13
2022-11-05T20:29:16.984Z,15.00
2022-11-05T20:31:44.448Z,13.10
2022-11-05T20:34:11.859Z,13.23
2022-11-05T20:36:39.711Z,14.68
2022-11-05T20:39:07.237Z,15.82
2022-11-05T20:41:34.661Z,13.55
2022-11-05T20:44:02.226Z,10.18
2022-11-05T20:46:29.607Z,19.93
2022-11-05T20:48:58.340Z,15.13
2022-11-05T20:51:25.905Z,16.85
2022-11-05T20:53:58.012Z,11.45
2022-11-05T20:56:32.036Z,17.52
2022-11-05T20:59:00.924Z,15.03
2022-11-05T21:01:30.729Z,13.23
2022-11-05T21:03:59.936Z,17.70
2022-11-05T21:06:27.308Z,9.88
2022-11-05T21:08:54.740Z,13.95
2022-11-05T21:11:22.634Z,13.97
2022-11-05T21:13:50.532Z,17.73
2022-11-05T21:16:19.472Z,18.35
2022-11-05T21:18:47.770Z,19.95
2022-11-05T21:21:19.577Z,25.70
2022-11-05T21:23:48.053Z,24.10
2022-11-05T21:26:18.063Z,19.48
2022-11-05T21:28:45.681Z,18.35
2022-11-05T21:31:13.366Z,17.63
2022-11-05T21:33:41.125Z,16.02
2022-11-05T21:36:13.534Z,19.73
2022-11-05T21:38:42.131Z,14.88
2022-11-05T21:41:11.418Z,19.23
2022-11-05T21:43:42.067Z,14.52
2022-11-05T21:46:12.602Z,15.60
2022-11-05T21:48:40.549Z,19.30
2022-11-05T21:51:26.467Z,18.67
2022-11-05T21:54:12.759Z,18.58
2022-11-05T21:56:58.827Z,19.05
2022-11-05T21:59:45.047Z,18.55
2022-11-05T22:02:14.352Z,16.77
2022-11-05T22:04:45.098Z,19.95
2022-11-05T22:07:15.461Z,21.95
2022-11-05T22:09:43.147Z,17.95
2022-11-05T22:12:11.105Z,13.48
2022-11-05T22:14:39.312Z,11.20
2022-11-05T22:17:07.558Z,22.10
2022-11-05T22:19:35.659Z,18.13
2022-11-05T22:22:04.257Z,13.57
2022-11-05T22:24:32.316Z,15.75
2022-11-05T22:27:01.332Z,13.80
2022-11-05T22:29:29.285Z,14.07
2022-11-05T22:31:57.510Z,13.60
2022-11-05T22:34:25.851Z,15.55
2022-11-05T22:36:53.805Z,14.35
2022-11-05T22:39:22.676Z,15.23
2022-11-05T22:41:53.062Z,14.02
2022-11-05T22:44:20.908Z,14.43
2022-11-05T22:46:48.542Z,15.48
2022-11-05T22:49:15.889Z,16.33
2022-11-05T22:51:43.930Z,17.50
2022-11-05T22:54:11.690Z,9.75
2022-11-05T22:56:41.626Z,15.70
2022-11-05T22:59:13.833Z,14.57
2022-11-05T23:01:44.294Z,12.25
2022-11-05T23:04:13.308Z,12.27
2022-11-05T23:06:59.330Z,15.55
2022-11-05T23:09:50.102Z,12.27
2022-11-05T23:12:27.922Z,10.68
2022-11-05T23:14:57.255Z,13.93
2022-11-05T23:17:44.154Z,13.07
2022-11-05T23:20:41.987Z,10.57
2022-11-05T23:23:31.696Z,13.00
2022-11-05T23:26:00.167Z,15.75
2022-11-05T23:28:28.988Z,10.48
2022-11-05T23:31:14.904Z,10.47
2022-11-05T23:33:42.252Z,17.27
2022-11-05T23:36:31.670Z,12.23
2022-11-05T23:38:59.918Z,13.57
2022-11-05T23:41:45.940Z,18.02
2022-11-05T23:44:31.676Z,16.73
2022-11-05T23:47:17.916Z,15.70
2022-11-05T23:49:45.443Z,16.30
2022-11-05T23:52:12.773Z,15.95
2022-11-05T23:54:40.694Z,13.60
2022-11-05T23:57:08.132Z,17.53
2022-11-05T23:59:35.685Z,16.10
